Terminal Aerodrome Forecast
Issued by NWS

Current Version | Previous Version | Text Only | Print | Product List | Glossary On
Versions: 1 2 3 4 5 6 7 8 9 10 11 12 13 14 15 16 17 18 19 20 21 22 23 24 25 26 27
000
FTUS43 KGRR 061100
TAFMKG
TAF
KMKG 061140Z 0612/0712 11008KT 5SM BR OVC006
     FM061600 13007KT P6SM OVC025
     FM061800 15007KT P6SM OVC060
     FM062000 16005KT P6SM BKN250=

USA.gov is the U.S. government's official web portal to all federal, state and local government web resources and services.